sensor_id;sensor_type;location;lat;lon;timestamp;pressure;altitude;pressure_sealevel;temperature;humidity
11053;BME280;55230;42.602;23.470;2023-09-19T00:01:08;93947.41;;;14.99;100.00
11053;BME280;55230;42.602;23.470;2023-09-19T00:03:37;93953.00;;;14.96;100.00
11053;BME280;55230;42.602;23.470;2023-09-19T00:06:04;93945.44;;;14.76;100.00
11053;BME280;55230;42.602;23.470;2023-09-19T00:08:32;93937.41;;;14.82;100.00
11053;BME280;55230;42.602;23.470;2023-09-19T00:10:59;93933.97;;;14.72;100.00
11053;BME280;55230;42.602;23.470;2023-09-19T00:13:30;93921.59;;;14.80;100.00
11053;BME280;55230;42.602;23.470;2023-09-19T00:15:57;93927.75;;;14.81;100.00
11053;BME280;55230;42.602;23.470;2023-09-19T00:18:24;93925.78;;;14.81;100.00
11053;BME280;55230;42.602;23.470;2023-09-19T00:20:58;93920.94;;;14.85;100.00
11053;BME280;55230;42.602;23.470;2023-09-19T00:23:24;93927.28;;;14.82;100.00
11053;BME280;55230;42.602;23.470;2023-09-19T00:25:51;93924.28;;;14.80;100.00
11053;BME280;55230;42.602;23.470;2023-09-19T00:28:17;93925.84;;;14.72;100.00
11053;BME280;55230;42.602;23.470;2023-09-19T00:30:45;93930.81;;;14.74;100.00
11053;BME280;55230;42.602;23.470;2023-09-19T00:33:15;93921.47;;;14.75;100.00
11053;BME280;55230;42.602;23.470;2023-09-19T00:35:46;93915.09;;;14.78;100.00
11053;BME280;55230;42.602;23.470;2023-09-19T00:38:14;93922.41;;;14.72;100.00
11053;BME280;55230;42.602;23.470;2023-09-19T00:40:43;93917.88;;;14.69;100.00
11053;BME280;55230;42.602;23.470;2023-09-19T00:43:09;93921.81;;;14.68;100.00
11053;BME280;55230;42.602;23.470;2023-09-19T00:45:37;93920.88;;;14.71;100.00
11053;BME280;55230;42.602;23.470;2023-09-19T00:48:07;93926.00;;;14.69;100.00
11053;BME280;55230;42.602;23.470;2023-09-19T00:50:34;93928.25;;;14.70;100.00
11053;BME280;55230;42.602;23.470;2023-09-19T00:53:01;93925.00;;;14.66;100.00
11053;BME280;55230;42.602;23.470;2023-09-19T00:55:34;93916.38;;;14.68;100.00
11053;BME280;55230;42.602;23.470;2023-09-19T00:58:02;93913.84;;;14.64;100.00
11053;BME280;55230;42.602;23.470;2023-09-19T01:00:31;93901.75;;;14.65;100.00
11053;BME280;55230;42.602;23.470;2023-09-19T01:02:59;93896.63;;;14.67;100.00
11053;BME280;55230;42.602;23.470;2023-09-19T01:05:26;93892.06;;;14.73;100.00
11053;BME280;55230;42.602;23.470;2023-09-19T01:07:52;93892.31;;;14.75;100.00
11053;BME280;55230;42.602;23.470;2023-09-19T01:10:19;93894.13;;;14.78;100.00
11053;BME280;55230;42.602;23.470;2023-09-19T01:12:51;93898.06;;;14.77;100.00
11053;BME280;55230;42.602;23.470;2023-09-19T01:15:21;93905.34;;;14.71;100.00
11053;BME280;55230;42.602;23.470;2023-09-19T01:17:53;93905.34;;;14.71;100.00
11053;BME280;55230;42.602;23.470;2023-09-19T01:20:27;93904.75;;;14.67;100.00
11053;BME280;55230;42.602;23.470;2023-09-19T01:23:01;93904.94;;;14.64;100.00
11053;BME280;55230;42.602;23.470;2023-09-19T01:25:42;93906.63;;;14.61;100.00
11053;BME280;55230;42.602;23.470;2023-09-19T01:31:09;93901.53;;;14.54;100.00
11053;BME280;55230;42.602;23.470;2023-09-19T01:33:54;93899.13;;;14.56;100.00
11053;BME280;55230;42.602;23.470;2023-09-19T01:36:22;93902.09;;;14.58;100.00
11053;BME280;55230;42.602;23.470;2023-09-19T01:38:49;93898.19;;;14.59;100.00
11053;BME280;55230;42.602;23.470;2023-09-19T01:41:17;93898.94;;;14.60;100.00
11053;BME280;55230;42.602;23.470;2023-09-19T01:43:47;93891.88;;;14.53;100.00
11053;BME280;55230;42.602;23.470;2023-09-19T01:46:18;93878.31;;;14.53;100.00
11053;BME280;55230;42.602;23.470;2023-09-19T01:48:46;93896.75;;;14.49;100.00
11053;BME280;55230;42.602;23.470;2023-09-19T01:51:18;93896.28;;;14.51;100.00
11053;BME280;55230;42.602;23.470;2023-09-19T01:53:50;93897.38;;;14.44;100.00
11053;BME280;55230;42.602;23.470;2023-09-19T01:56:20;93893.16;;;14.43;100.00
11053;BME280;55230;42.602;23.470;2023-09-19T01:58:49;93888.94;;;14.42;100.00
11053;BME280;55230;42.602;23.470;2023-09-19T02:01:20;93895.09;;;14.43;100.00
11053;BME280;55230;42.602;23.470;2023-09-19T02:03:48;93898.44;;;14.38;100.00
11053;BME280;55230;42.602;23.470;2023-09-19T02:06:15;93896.19;;;14.36;100.00
11053;BME280;55230;42.602;23.470;2023-09-19T02:08:42;93890.78;;;14.36;100.00
11053;BME280;55230;42.602;23.470;2023-09-19T02:11:10;93901.34;;;14.34;100.00
11053;BME280;55230;42.602;23.470;2023-09-19T02:13:36;93904.69;;;14.29;100.00
11053;BME280;55230;42.602;23.470;2023-09-19T02:16:03;93910.88;;;14.30;100.00
11053;BME280;55230;42.602;23.470;2023-09-19T02:18:33;93904.84;;;14.26;100.00
11053;BME280;55230;42.602;23.470;2023-09-19T02:21:00;93915.94;;;14.04;100.00
11053;BME280;55230;42.602;23.470;2023-09-19T02:23:26;93908.13;;;13.97;100.00
11053;BME280;55230;42.602;23.470;2023-09-19T02:25:53;93913.53;;;13.97;100.00
11053;BME280;55230;42.602;23.470;2023-09-19T02:28:19;93922.31;;;13.92;100.00
11053;BME280;55230;42.602;23.470;2023-09-19T02:30:47;93913.88;;;13.90;100.00
11053;BME280;55230;42.602;23.470;2023-09-19T02:33:14;93911.63;;;13.88;100.00
11053;BME280;55230;42.602;23.470;2023-09-19T02:35:42;93910.84;;;13.88;100.00
11053;BME280;55230;42.602;23.470;2023-09-19T02:38:08;93905.59;;;13.84;100.00
11053;BME280;55230;42.602;23.470;2023-09-19T02:40:37;93901.84;;;13.82;100.00
11053;BME280;55230;42.602;23.470;2023-09-19T02:43:03;93896.59;;;13.78;100.00
11053;BME280;55230;42.602;23.470;2023-09-19T02:45:30;93888.31;;;13.73;100.00
11053;BME280;55230;42.602;23.470;2023-09-19T02:47:57;93891.34;;;13.66;100.00
11053;BME280;55230;42.602;23.470;2023-09-19T02:50:24;93884.47;;;13.56;100.00
11053;BME280;55230;42.602;23.470;2023-09-19T02:52:52;93878.72;;;13.63;100.00
11053;BME280;55230;42.602;23.470;2023-09-19T02:55:19;93869.97;;;13.68;100.00
11053;BME280;55230;42.602;23.470;2023-09-19T02:57:47;93868.75;;;13.69;100.00
11053;BME280;55230;42.602;23.470;2023-09-19T03:00:14;93860.06;;;13.65;100.00
11053;BME280;55230;42.602;23.470;2023-09-19T03:02:41;93851.94;;;13.56;100.00
11053;BME280;55230;42.602;23.470;2023-09-19T03:05:08;93854.50;;;13.59;100.00
11053;BME280;55230;42.602;23.470;2023-09-19T03:07:36;93857.44;;;13.70;100.00
11053;BME280;55230;42.602;23.470;2023-09-19T03:10:05;93853.75;;;13.59;100.00
11053;BME280;55230;42.602;23.470;2023-09-19T03:12:32;93854.91;;;13.67;100.00
11053;BME280;55230;42.602;23.470;2023-09-19T03:14:59;93854.13;;;13.75;100.00
11053;BME280;55230;42.602;23.470;2023-09-19T03:17:26;93842.38;;;13.78;100.00
11053;BME280;55230;42.602;23.470;2023-09-19T03:19:52;93844.31;;;13.87;100.00
11053;BME280;55230;42.602;23.470;2023-09-19T03:22:19;93840.38;;;13.88;100.00
11053;BME280;55230;42.602;23.470;2023-09-19T03:24:46;93848.50;;;13.88;100.00
11053;BME280;55230;42.602;23.470;2023-09-19T03:27:14;93855.81;;;13.73;100.00
11053;BME280;55230;42.602;23.470;2023-09-19T03:29:41;93849.41;;;13.52;100.00
11053;BME280;55230;42.602;23.470;2023-09-19T03:32:07;93860.13;;;13.38;100.00
11053;BME280;55230;42.602;23.470;2023-09-19T03:34:35;93854.75;;;13.20;100.00
11053;BME280;55230;42.602;23.470;2023-09-19T03:37:02;93862.28;;;13.16;100.00
11053;BME280;55230;42.602;23.470;2023-09-19T03:39:29;93856.69;;;13.10;100.00
11053;BME280;55230;42.602;23.470;2023-09-19T03:41:55;93852.66;;;13.15;100.00
11053;BME280;55230;42.602;23.470;2023-09-19T03:44:23;93847.66;;;13.13;100.00
11053;BME280;55230;42.602;23.470;2023-09-19T03:46:50;93841.22;;;13.11;100.00
11053;BME280;55230;42.602;23.470;2023-09-19T03:49:16;93844.22;;;13.13;100.00
11053;BME280;55230;42.602;23.470;2023-09-19T03:51:43;93844.69;;;13.11;100.00
11053;BME280;55230;42.602;23.470;2023-09-19T03:54:09;93842.88;;;12.99;100.00
11053;BME280;55230;42.602;23.470;2023-09-19T03:56:36;93852.03;;;12.93;100.00
11053;BME280;55230;42.602;23.470;2023-09-19T03:59:02;93847.69;;;12.86;100.00
11053;BME280;55230;42.602;23.470;2023-09-19T04:01:30;93847.69;;;12.95;100.00
11053;BME280;55230;42.602;23.470;2023-09-19T04:03:58;93855.34;;;12.88;100.00
11053;BME280;55230;42.602;23.470;2023-09-19T04:06:33;93857.47;;;12.84;100.00
11053;BME280;55230;42.602;23.470;2023-09-19T04:09:00;93865.72;;;12.89;100.00
11053;BME280;55230;42.602;23.470;2023-09-19T04:11:26;93867.84;;;12.94;100.00
11053;BME280;55230;42.602;23.470;2023-09-19T04:13:53;93868.31;;;13.02;100.00
11053;BME280;55230;42.602;23.470;2023-09-19T04:16:19;93869.47;;;12.92;100.00
11053;BME280;55230;42.602;23.470;2023-09-19T04:18:47;93874.59;;;12.99;100.00
11053;BME280;55230;42.602;23.470;2023-09-19T04:21:14;93879.44;;;13.04;100.00
11053;BME280;55230;42.602;23.470;2023-09-19T04:23:41;93885.31;;;13.02;100.00
11053;BME280;55230;42.602;23.470;2023-09-19T04:26:08;93892.06;;;13.07;100.00
11053;BME280;55230;42.602;23.470;2023-09-19T04:28:34;93897.78;;;13.18;100.00
11053;BME280;55230;42.602;23.470;2023-09-19T04:31:03;93884.69;;;13.25;100.00
11053;BME280;55230;42.602;23.470;2023-09-19T04:33:30;93882.41;;;13.33;100.00
11053;BME280;55230;42.602;23.470;2023-09-19T04:36:00;93885.53;;;13.49;100.00
11053;BME280;55230;42.602;23.470;2023-09-19T04:38:28;93881.13;;;13.61;100.00
11053;BME280;55230;42.602;23.470;2023-09-19T04:40:56;93886.38;;;13.73;100.00
11053;BME280;55230;42.602;23.470;2023-09-19T04:43:23;93893.56;;;13.85;100.00
11053;BME280;55230;42.602;23.470;2023-09-19T04:45:50;93896.97;;;13.95;100.00
11053;BME280;55230;42.602;23.470;2023-09-19T04:48:20;93894.63;;;14.12;100.00
11053;BME280;55230;42.602;23.470;2023-09-19T04:50:48;93888.56;;;14.26;100.00
11053;BME280;55230;42.602;23.470;2023-09-19T04:53:16;93876.75;;;14.38;100.00
11053;BME280;55230;42.602;23.470;2023-09-19T04:55:42;93879.47;;;14.38;100.00
11053;BME280;55230;42.602;23.470;2023-09-19T04:58:09;93884.25;;;14.10;100.00
11053;BME280;55230;42.602;23.470;2023-09-19T05:00:36;93890.31;;;14.05;100.00
11053;BME280;55230;42.602;23.470;2023-09-19T05:03:02;93885.94;;;14.08;100.00
11053;BME280;55230;42.602;23.470;2023-09-19T05:05:30;93878.50;;;14.17;100.00
11053;BME280;55230;42.602;23.470;2023-09-19T05:07:58;93885.00;;;14.43;100.00
11053;BME280;55230;42.602;23.470;2023-09-19T05:10:26;93881.50;;;14.52;100.00
11053;BME280;55230;42.602;23.470;2023-09-19T05:12:53;93879.38;;;14.56;100.00
11053;BME280;55230;42.602;23.470;2023-09-19T05:15:19;93878.66;;;14.46;100.00
11053;BME280;55230;42.602;23.470;2023-09-19T05:17:49;93865.03;;;14.55;100.00
11053;BME280;55230;42.602;23.470;2023-09-19T05:20:16;93858.69;;;14.58;100.00
11053;BME280;55230;42.602;23.470;2023-09-19T05:22:49;93864.91;;;14.50;100.00
11053;BME280;55230;42.602;23.470;2023-09-19T05:25:16;93864.09;;;14.58;100.00
11053;BME280;55230;42.602;23.470;2023-09-19T05:27:45;93865.63;;;14.59;100.00
11053;BME280;55230;42.602;23.470;2023-09-19T05:30:11;93868.69;;;14.52;100.00
11053;BME280;55230;42.602;23.470;2023-09-19T05:32:40;93857.47;;;14.59;100.00
11053;BME280;55230;42.602;23.470;2023-09-19T05:35:06;93867.41;;;14.62;100.00
11053;BME280;55230;42.602;23.470;2023-09-19T05:37:34;93862.03;;;14.53;100.00
11053;BME280;55230;42.602;23.470;2023-09-19T05:40:01;93862.88;;;14.83;100.00
11053;BME280;55230;42.602;23.470;2023-09-19T05:42:32;93866.94;;;15.02;100.00
11053;BME280;55230;42.602;23.470;2023-09-19T05:45:00;93869.84;;;14.98;100.00
11053;BME280;55230;42.602;23.470;2023-09-19T05:47:26;93862.34;;;14.93;100.00
11053;BME280;55230;42.602;23.470;2023-09-19T05:49:53;93863.81;;;14.94;100.00
11053;BME280;55230;42.602;23.470;2023-09-19T05:52:19;93865.63;;;14.97;100.00
11053;BME280;55230;42.602;23.470;2023-09-19T05:54:47;93858.81;;;15.17;100.00
11053;BME280;55230;42.602;23.470;2023-09-19T05:57:14;93865.53;;;15.06;100.00
11053;BME280;55230;42.602;23.470;2023-09-19T05:59:41;93855.28;;;15.40;100.00
11053;BME280;55230;42.602;23.470;2023-09-19T06:02:09;93856.25;;;15.51;100.00
11053;BME280;55230;42.602;23.470;2023-09-19T06:04:37;93861.47;;;15.69;100.00
11053;BME280;55230;42.602;23.470;2023-09-19T06:07:06;93860.16;;;15.94;100.00
11053;BME280;55230;42.602;23.470;2023-09-19T06:09:32;93856.56;;;15.88;100.00
11053;BME280;55230;42.602;23.470;2023-09-19T06:11:59;93847.59;;;15.82;100.00
11053;BME280;55230;42.602;23.470;2023-09-19T06:14:28;93848.34;;;15.82;100.00
11053;BME280;55230;42.602;23.470;2023-09-19T06:16:55;93839.16;;;15.80;100.00
11053;BME280;55230;42.602;23.470;2023-09-19T06:19:24;93851.53;;;15.81;100.00
11053;BME280;55230;42.602;23.470;2023-09-19T06:21:52;93852.31;;;16.01;100.00
11053;BME280;55230;42.602;23.470;2023-09-19T06:24:18;93856.38;;;16.06;100.00
11053;BME280;55230;42.602;23.470;2023-09-19T06:26:46;93857.50;;;15.99;100.00
11053;BME280;55230;42.602;23.470;2023-09-19T06:29:12;93856.16;;;16.09;100.00
11053;BME280;55230;42.602;23.470;2023-09-19T06:31:39;93851.63;;;16.21;100.00
11053;BME280;55230;42.602;23.470;2023-09-19T06:34:06;93854.31;;;16.01;100.00
11053;BME280;55230;42.602;23.470;2023-09-19T06:36:34;93853.75;;;15.97;100.00
11053;BME280;55230;42.602;23.470;2023-09-19T06:39:01;93855.41;;;16.09;100.00
11053;BME280;55230;42.602;23.470;2023-09-19T06:41:29;93855.13;;;16.07;100.00
11053;BME280;55230;42.602;23.470;2023-09-19T06:43:56;93848.00;;;16.44;100.00
11053;BME280;55230;42.602;23.470;2023-09-19T06:46:22;93858.16;;;16.29;100.00
11053;BME280;55230;42.602;23.470;2023-09-19T06:48:50;93848.22;;;16.26;100.00
11053;BME280;55230;42.602;23.470;2023-09-19T06:51:17;93848.59;;;16.68;100.00
11053;BME280;55230;42.602;23.470;2023-09-19T06:53:45;93850.50;;;16.82;100.00
11053;BME280;55230;42.602;23.470;2023-09-19T06:56:12;93858.56;;;17.43;100.00
11053;BME280;55230;42.602;23.470;2023-09-19T06:58:38;93859.97;;;17.58;100.00
11053;BME280;55230;42.602;23.470;2023-09-19T07:01:05;93872.78;;;17.52;100.00
11053;BME280;55230;42.602;23.470;2023-09-19T07:03:31;93870.88;;;17.38;100.00
11053;BME280;55230;42.602;23.470;2023-09-19T07:05:58;93876.81;;;17.57;99.35
11053;BME280;55230;42.602;23.470;2023-09-19T07:08:25;93872.00;;;17.72;98.59
11053;BME280;55230;42.602;23.470;2023-09-19T07:10:53;93875.16;;;17.96;97.81
11053;BME280;55230;42.602;23.470;2023-09-19T07:13:19;93872.91;;;18.25;97.04
11053;BME280;55230;42.602;23.470;2023-09-19T07:15:45;93884.34;;;18.66;94.33
11053;BME280;55230;42.602;23.470;2023-09-19T07:18:15;93889.19;;;18.14;93.49
11053;BME280;55230;42.602;23.470;2023-09-19T07:20:42;93887.94;;;18.10;95.02
11053;BME280;55230;42.602;23.470;2023-09-19T07:23:13;93885.25;;;18.52;94.06
11053;BME280;55230;42.602;23.470;2023-09-19T07:25:40;93891.78;;;18.60;91.87
11053;BME280;55230;42.602;23.470;2023-09-19T07:28:08;93889.91;;;18.88;89.54
11053;BME280;55230;42.602;23.470;2023-09-19T07:30:37;93882.06;;;19.18;89.32
11053;BME280;55230;42.602;23.470;2023-09-19T07:33:04;93881.22;;;19.60;87.67
11053;BME280;55230;42.602;23.470;2023-09-19T07:35:31;93882.44;;;19.64;86.82
11053;BME280;55230;42.602;23.470;2023-09-19T07:37:57;93881.22;;;19.60;84.39
11053;BME280;55230;42.602;23.470;2023-09-19T07:40:26;93884.28;;;19.14;88.82
11053;BME280;55230;42.602;23.470;2023-09-19T07:42:54;93881.28;;;19.06;87.34
11053;BME280;55230;42.602;23.470;2023-09-19T07:45:21;93879.97;;;18.85;88.40
11053;BME280;55230;42.602;23.470;2023-09-19T07:47:50;93876.69;;;18.81;88.68
11053;BME280;55230;42.602;23.470;2023-09-19T07:50:17;93879.44;;;18.81;87.96
11053;BME280;55230;42.602;23.470;2023-09-19T07:52:44;93881.56;;;19.19;87.00
11053;BME280;55230;42.602;23.470;2023-09-19T07:55:11;93879.13;;;18.68;88.89
11053;BME280;55230;42.602;23.470;2023-09-19T07:57:41;93880.88;;;18.71;89.75
11053;BME280;55230;42.602;23.470;2023-09-19T08:00:09;93878.00;;;18.91;88.30
11053;BME280;55230;42.602;23.470;2023-09-19T08:02:38;93879.53;;;18.98;86.75
11053;BME280;55230;42.602;23.470;2023-09-19T08:05:05;93885.00;;;19.09;85.80
11053;BME280;55230;42.602;23.470;2023-09-19T08:07:32;93886.28;;;19.08;87.31
11053;BME280;55230;42.602;23.470;2023-09-19T08:09:59;93876.47;;;18.79;87.39
11053;BME280;55230;42.602;23.470;2023-09-19T08:12:25;93885.03;;;19.14;87.50
11053;BME280;55230;42.602;23.470;2023-09-19T08:14:52;93879.97;;;19.55;86.25
11053;BME280;55230;42.602;23.470;2023-09-19T08:17:19;93884.69;;;19.54;84.35
11053;BME280;55230;42.602;23.470;2023-09-19T08:19:48;93883.66;;;19.35;84.66
11053;BME280;55230;42.602;23.470;2023-09-19T08:22:18;93886.75;;;19.06;86.27
11053;BME280;55230;42.602;23.470;2023-09-19T08:24:44;93885.00;;;19.09;87.44
11053;BME280;55230;42.602;23.470;2023-09-19T08:27:11;93875.97;;;19.50;88.12
11053;BME280;55230;42.602;23.470;2023-09-19T08:29:38;93872.53;;;19.94;85.33
11053;BME280;55230;42.602;23.470;2023-09-19T08:32:04;93874.78;;;20.18;79.76
11053;BME280;55230;42.602;23.470;2023-09-19T08:34:31;93874.25;;;19.70;81.35
11053;BME280;55230;42.602;23.470;2023-09-19T08:37:00;93870.53;;;19.78;81.45
11053;BME280;55230;42.602;23.470;2023-09-19T08:39:26;93869.50;;;19.42;82.00
11053;BME280;55230;42.602;23.470;2023-09-19T08:41:57;93862.47;;;19.25;83.82
11053;BME280;55230;42.602;23.470;2023-09-19T08:44:24;93859.34;;;19.65;83.46
11053;BME280;55230;42.602;23.470;2023-09-19T08:46:52;93864.06;;;19.65;80.66
11053;BME280;55230;42.602;23.470;2023-09-19T08:49:23;93864.34;;;20.00;80.10
11053;BME280;55230;42.602;23.470;2023-09-19T08:51:53;93865.31;;;20.30;77.31
11053;BME280;55230;42.602;23.470;2023-09-19T08:54:26;93861.56;;;20.33;76.98
11053;BME280;55230;42.602;23.470;2023-09-19T08:56:55;93860.53;;;20.69;76.13
11053;BME280;55230;42.602;23.470;2023-09-19T08:59:22;93860.06;;;20.54;73.53
11053;BME280;55230;42.602;23.470;2023-09-19T09:01:52;93861.81;;;20.57;74.46
11053;BME280;55230;42.602;23.470;2023-09-19T09:04:19;93853.53;;;20.74;73.00
11053;BME280;55230;42.602;23.470;2023-09-19T09:06:46;93855.41;;;21.12;71.09
11053;BME280;55230;42.602;23.470;2023-09-19T09:09:13;93854.69;;;21.52;71.61
11053;BME280;55230;42.602;23.470;2023-09-19T09:11:41;93855.25;;;21.86;68.10
11053;BME280;55230;42.602;23.470;2023-09-19T09:14:08;93852.91;;;22.25;67.58
11053;BME280;55230;42.602;23.470;2023-09-19T09:16:35;93852.06;;;22.65;62.71
11053;BME280;55230;42.602;23.470;2023-09-19T09:19:01;93845.44;;;22.98;61.92
11053;BME280;55230;42.602;23.470;2023-09-19T09:21:28;93834.44;;;22.98;56.89
11053;BME280;55230;42.602;23.470;2023-09-19T09:23:54;93821.53;;;22.15;60.80
11053;BME280;55230;42.602;23.470;2023-09-19T09:29:03;93820.13;;;20.81;67.86
11053;BME280;55230;42.602;23.470;2023-09-19T09:31:30;93819.47;;;20.47;71.48
11053;BME280;55230;42.602;23.470;2023-09-19T09:33:57;93816.47;;;20.45;71.47
11053;BME280;55230;42.602;23.470;2023-09-19T09:36:36;93819.84;;;20.84;72.00
11053;BME280;55230;42.602;23.470;2023-09-19T09:39:03;93815.59;;;21.40;67.49
11053;BME280;55230;42.602;23.470;2023-09-19T09:41:41;93815.78;;;21.07;67.82
11053;BME280;55230;42.602;23.470;2023-09-19T09:44:13;93809.81;;;21.49;67.69
11053;BME280;55230;42.602;23.470;2023-09-19T09:46:42;93814.19;;;21.63;63.09
11053;BME280;55230;42.602;23.470;2023-09-19T09:49:24;93808.09;;;22.35;62.83
11053;BME280;55230;42.602;23.470;2023-09-19T09:51:59;93805.75;;;22.93;59.86
11053;BME280;55230;42.602;23.470;2023-09-19T09:54:26;93811.38;;;23.43;56.13
11053;BME280;55230;42.602;23.470;2023-09-19T09:56:59;93805.47;;;23.71;54.64
11053;BME280;55230;42.602;23.470;2023-09-19T09:59:52;93805.16;;;23.74;52.43
11053;BME280;55230;42.602;23.470;2023-09-19T10:02:21;93800.97;;;23.36;54.08
11053;BME280;55230;42.602;23.470;2023-09-19T10:04:54;93801.13;;;23.75;53.67
11053;BME280;55230;42.602;23.470;2023-09-19T10:07:34;93807.16;;;23.74;53.73
11053;BME280;55230;42.602;23.470;2023-09-19T10:10:06;93795.50;;;23.12;54.57
11053;BME280;55230;42.602;23.470;2023-09-19T10:12:42;93790.59;;;23.42;54.83
11053;BME280;55230;42.602;23.470;2023-09-19T10:15:10;93796.63;;;23.04;56.08
11053;BME280;55230;42.602;23.470;2023-09-19T10:17:37;93794.97;;;22.95;57.11
11053;BME280;55230;42.602;23.470;2023-09-19T10:20:08;93791.94;;;22.99;56.31
11053;BME280;55230;42.602;23.470;2023-09-19T10:22:47;93789.72;;;22.73;57.64
11053;BME280;55230;42.602;23.470;2023-09-19T10:25:22;93783.88;;;22.82;56.70
11053;BME280;55230;42.602;23.470;2023-09-19T10:27:50;93791.78;;;22.91;57.42
11053;BME280;55230;42.602;23.470;2023-09-19T10:30:20;93777.78;;;22.89;57.25
11053;BME280;55230;42.602;23.470;2023-09-19T10:32:47;93781.22;;;22.95;58.00
11053;BME280;55230;42.602;23.470;2023-09-19T10:35:19;93777.34;;;22.85;57.66
11053;BME280;55230;42.602;23.470;2023-09-19T10:37:47;93784.59;;;22.64;58.55
11053;BME280;55230;42.602;23.470;2023-09-19T10:40:16;93771.47;;;23.13;57.75
11053;BME280;55230;42.602;23.470;2023-09-19T10:42:45;93774.91;;;23.19;56.71
11053;BME280;55230;42.602;23.470;2023-09-19T10:45:12;93777.34;;;22.85;57.51
11053;BME280;55230;42.602;23.470;2023-09-19T10:47:42;93767.97;;;22.93;57.40
11053;BME280;55230;42.602;23.470;2023-09-19T10:50:09;93768.06;;;23.44;57.80
11053;BME280;55230;42.602;23.470;2023-09-19T10:52:40;93766.72;;;23.82;55.09
11053;BME280;55230;42.602;23.470;2023-09-19T10:55:09;93760.50;;;23.94;54.12
11053;BME280;55230;42.602;23.470;2023-09-19T10:57:43;93769.28;;;23.61;53.88
11053;BME280;55230;42.602;23.470;2023-09-19T11:00:12;93765.16;;;23.55;54.11
11053;BME280;55230;42.602;23.470;2023-09-19T11:05:35;93765.22;;;24.13;52.48
11053;BME280;55230;42.602;23.470;2023-09-19T11:08:05;93764.91;;;24.16;52.63
11053;BME280;55230;42.602;23.470;2023-09-19T11:13:23;93760.19;;;23.66;53.72
11053;BME280;55230;42.602;23.470;2023-09-19T11:21:40;93751.84;;;23.40;54.92
11053;BME280;55230;42.602;23.470;2023-09-19T11:27:08;93743.00;;;23.92;53.12
11053;BME280;55230;42.602;23.470;2023-09-19T11:29:35;93751.06;;;23.90;53.39
11053;BME280;55230;42.602;23.470;2023-09-19T11:32:02;93745.56;;;23.90;53.23
11053;BME280;55230;42.602;23.470;2023-09-19T11:34:37;93736.63;;;23.84;52.96
11053;BME280;55230;42.602;23.470;2023-09-19T11:37:04;93738.44;;;23.81;53.55
11053;BME280;55230;42.602;23.470;2023-09-19T11:40:05;93728.81;;;23.56;55.74
11053;BME280;55230;42.602;23.470;2023-09-19T11:42:41;93728.22;;;23.63;55.57
11053;BME280;55230;42.602;23.470;2023-09-19T11:45:07;93723.25;;;24.20;54.97
11053;BME280;55230;42.602;23.470;2023-09-19T11:47:34;93710.53;;;24.69;54.09
11053;BME280;55230;42.602;23.470;2023-09-19T11:50:01;93711.97;;;24.96;50.57
11053;BME280;55230;42.602;23.470;2023-09-19T11:52:30;93705.84;;;24.64;51.07
11053;BME280;55230;42.602;23.470;2023-09-19T11:54:59;93700.78;;;24.42;51.52
11053;BME280;55230;42.602;23.470;2023-09-19T11:57:27;93697.19;;;24.47;52.34
11053;BME280;55230;42.602;23.470;2023-09-19T11:59:55;93691.22;;;24.56;51.19
11053;BME280;55230;42.602;23.470;2023-09-19T12:02:28;93693.88;;;25.08;50.73
11053;BME280;55230;42.602;23.470;2023-09-19T12:05:01;93682.03;;;25.00;49.81
11053;BME280;55230;42.602;23.470;2023-09-19T12:07:27;93683.22;;;25.25;49.70
11053;BME280;55230;42.602;23.470;2023-09-19T12:10:03;93688.78;;;24.52;50.64
11053;BME280;55230;42.602;23.470;2023-09-19T12:12:31;93681.06;;;24.38;51.62
11053;BME280;55230;42.602;23.470;2023-09-19T12:14:58;93686.03;;;24.13;53.15
11053;BME280;55230;42.602;23.470;2023-09-19T12:17:34;93683.38;;;24.08;52.92
11053;BME280;55230;42.602;23.470;2023-09-19T12:20:01;93680.59;;;23.94;54.78
11053;BME280;55230;42.602;23.470;2023-09-19T12:22:40;93687.38;;;23.80;53.85
11053;BME280;55230;42.602;23.470;2023-09-19T12:25:10;93679.31;;;23.82;54.56
11053;BME280;55230;42.602;23.470;2023-09-19T12:27:41;93670.97;;;23.88;53.62
11053;BME280;55230;42.602;23.470;2023-09-19T12:30:09;93672.75;;;23.85;54.41
11053;BME280;55230;42.602;23.470;2023-09-19T12:32:39;93672.56;;;23.96;54.16
11053;BME280;55230;42.602;23.470;2023-09-19T12:35:06;93672.38;;;24.08;53.47
11053;BME280;55230;42.602;23.470;2023-09-19T12:37:36;93668.56;;;24.11;53.25
11053;BME280;55230;42.602;23.470;2023-09-19T12:40:03;93663.47;;;24.28;52.07
11053;BME280;55230;42.602;23.470;2023-09-19T12:42:41;93652.00;;;24.37;52.04
11053;BME280;55230;42.602;23.470;2023-09-19T12:45:09;93653.28;;;24.36;52.18
11053;BME280;55230;42.602;23.470;2023-09-19T12:47:38;93662.44;;;24.64;52.83
11053;BME280;55230;42.602;23.470;2023-09-19T12:50:09;93653.41;;;24.90;51.63
11053;BME280;55230;42.602;23.470;2023-09-19T12:52:40;93653.84;;;25.35;50.70
11053;BME280;55230;42.602;23.470;2023-09-19T12:55:07;93529.28;;;24.23;49.98
11053;BME280;55230;42.602;23.470;2023-09-19T12:57:36;93644.41;;;24.89;50.74
11053;BME280;55230;42.602;23.470;2023-09-19T13:00:06;93643.03;;;25.37;50.65
11053;BME280;55230;42.602;23.470;2023-09-19T13:02:36;93647.09;;;25.57;48.57
11053;BME280;55230;42.602;23.470;2023-09-19T13:05:02;93642.81;;;25.35;49.08
11053;BME280;55230;42.602;23.470;2023-09-19T13:07:41;93641.09;;;24.91;50.46
11053;BME280;55230;42.602;23.470;2023-09-19T13:10:12;93636.91;;;25.10;51.15
11053;BME280;55230;42.602;23.470;2023-09-19T13:12:41;93638.31;;;24.57;51.12